createdAt,value
2023-03-11T00:00:16.331Z,1.63
2023-03-11T00:02:43.905Z,1.30
2023-03-11T00:05:17.511Z,1.90
2023-03-11T00:07:44.740Z,1.42
2023-03-11T00:10:15.170Z,1.80
2023-03-11T00:12:42.366Z,1.70
2023-03-11T00:15:10.590Z,2.53
2023-03-11T00:17:37.696Z,2.23
2023-03-11T00:20:07.059Z,3.43
2023-03-11T00:22:35.715Z,2.80
2023-03-11T00:25:02.819Z,2.70
2023-03-11T00:27:29.955Z,2.93
2023-03-11T00:29:57.025Z,2.20
2023-03-11T00:32:24.197Z,2.77
2023-03-11T00:34:51.331Z,2.20
2023-03-11T00:37:18.463Z,2.57
2023-03-11T00:39:47.041Z,2.50
2023-03-11T00:42:14.118Z,2.20
2023-03-11T00:44:41.199Z,3.03
2023-03-11T00:47:09.780Z,2.70
2023-03-11T00:49:36.985Z,2.20
2023-03-11T00:52:04.983Z,2.23
2023-03-11T00:54:33.807Z,2.13
2023-03-11T00:57:02.641Z,2.30
2023-03-11T00:59:29.934Z,2.50
2023-03-11T01:01:57.173Z,2.03
2023-03-11T01:04:27.001Z,2.53
2023-03-11T01:06:54.628Z,1.87
2023-03-11T01:09:21.926Z,1.77
2023-03-11T01:11:49.200Z,1.77
2023-03-11T01:14:25.181Z,2.10
2023-03-11T01:16:53.975Z,1.77
2023-03-11T01:19:21.415Z,1.43
2023-03-11T01:21:48.456Z,1.50
2023-03-11T01:24:22.783Z,2.20
2023-03-11T01:26:50.358Z,2.00
2023-03-11T01:29:17.585Z,2.23
2023-03-11T01:31:46.478Z,1.63
2023-03-11T01:34:13.803Z,1.57
2023-03-11T01:36:41.374Z,2.00
2023-03-11T01:39:08.604Z,1.97
2023-03-11T01:41:35.901Z,2.30
2023-03-11T01:44:05.169Z,2.20
2023-03-11T01:46:40.481Z,2.17
2023-03-11T01:49:13.082Z,1.83
2023-03-11T01:51:43.244Z,1.80
2023-03-11T01:54:16.829Z,2.13
2023-03-11T01:56:45.735Z,2.20
2023-03-11T01:59:17.412Z,1.70
2023-03-11T02:01:52.913Z,2.00
2023-03-11T02:04:21.929Z,2.07
2023-03-11T02:06:51.411Z,1.50
2023-03-11T02:09:20.604Z,1.80
2023-03-11T02:11:47.745Z,2.40
2023-03-11T02:14:14.775Z,1.97
2023-03-11T02:16:43.517Z,1.73
2023-03-11T02:19:26.230Z,2.00
2023-03-11T02:21:55.507Z,1.60
2023-03-11T02:24:31.221Z,1.70
2023-03-11T02:27:03.025Z,1.43
2023-03-11T02:29:33.996Z,1.40
2023-03-11T02:32:05.273Z,1.90
2023-03-11T02:34:37.486Z,2.00
2023-03-11T02:37:05.958Z,2.00
2023-03-11T02:39:34.381Z,1.93
2023-03-11T02:42:07.072Z,1.70
2023-03-11T02:44:34.542Z,1.83
2023-03-11T02:47:02.512Z,1.90
2023-03-11T02:49:31.881Z,1.63
2023-03-11T02:51:59.090Z,1.67
2023-03-11T02:54:26.389Z,1.63
2023-03-11T02:56:55.721Z,1.57
2023-03-11T02:59:24.286Z,1.77
2023-03-11T03:01:55.356Z,1.70
2023-03-11T03:04:22.547Z,1.70
2023-03-11T03:06:51.530Z,2.43
2023-03-11T03:09:18.838Z,2.27
2023-03-11T03:11:46.184Z,2.10
2023-03-11T03:14:15.609Z,2.53
2023-03-11T03:16:46.726Z,1.83
2023-03-11T03:19:15.444Z,2.20
2023-03-11T03:21:43.264Z,1.90
2023-03-11T03:24:10.491Z,2.43
2023-03-11T03:26:38.317Z,2.00
2023-03-11T03:29:05.766Z,1.97
2023-03-11T03:31:33.110Z,3.00
2023-03-11T03:34:01.587Z,2.20
2023-03-11T03:36:28.524Z,2.40
2023-03-11T03:38:55.816Z,3.57
2023-03-11T03:41:23.254Z,3.40
2023-03-11T03:43:50.222Z,3.33
2023-03-11T03:46:17.265Z,3.83
2023-03-11T03:48:44.343Z,3.60
2023-03-11T03:51:14.266Z,3.07
2023-03-11T03:53:42.180Z,3.70
2023-03-11T03:56:10.834Z,3.20
2023-03-11T03:58:38.201Z,3.10
2023-03-11T04:01:06.259Z,3.30
2023-03-11T04:03:35.474Z,3.97
2023-03-11T04:06:07.638Z,4.27
2023-03-11T04:08:36.203Z,3.33
2023-03-11T04:11:03.677Z,3.30
2023-03-11T04:13:30.706Z,3.63
2023-03-11T04:15:57.927Z,4.17
2023-03-11T04:18:24.909Z,3.23
2023-03-11T04:20:52.021Z,3.67
2023-03-11T04:23:19.113Z,3.60
2023-03-11T04:25:47.577Z,2.97
2023-03-11T04:28:14.636Z,3.07
2023-03-11T04:30:41.902Z,3.60
2023-03-11T04:33:08.873Z,3.87
2023-03-11T04:35:38.587Z,2.77
2023-03-11T04:38:05.808Z,3.30
2023-03-11T04:40:32.849Z,3.47
2023-03-11T04:43:01.246Z,3.13
2023-03-11T04:45:28.189Z,4.37
2023-03-11T04:47:55.442Z,3.77
2023-03-11T04:50:22.717Z,3.83
2023-03-11T04:52:49.738Z,3.20
2023-03-11T04:55:17.236Z,3.30
2023-03-11T04:57:44.429Z,3.33
2023-03-11T05:00:15.788Z,4.20
2023-03-11T05:03:19.885Z,3.27
2023-03-11T05:05:57.477Z,3.15
2023-03-11T05:08:51.668Z,4.13
2023-03-11T05:11:22.534Z,3.97
2023-03-11T05:13:55.805Z,4.60
2023-03-11T05:16:59.499Z,3.20
2023-03-11T05:19:35.554Z,3.47
2023-03-11T05:22:05.540Z,3.40
2023-03-11T05:25:00.834Z,3.07
2023-03-11T05:28:04.964Z,2.57
2023-03-11T05:30:41.733Z,3.50
2023-03-11T05:33:16.937Z,4.03
2023-03-11T05:35:49.715Z,3.60
2023-03-11T05:38:36.866Z,3.90
2023-03-11T05:41:13.347Z,3.03
2023-03-11T05:43:55.370Z,4.00
2023-03-11T05:46:38.345Z,3.90
2023-03-11T05:49:07.860Z,3.70
2023-03-11T05:51:36.815Z,3.50
2023-03-11T05:54:11.681Z,3.77
2023-03-11T05:56:39.306Z,4.00
2023-03-11T05:59:06.809Z,4.13
2023-03-11T06:01:34.444Z,4.67
2023-03-11T06:04:02.341Z,4.33
2023-03-11T06:06:31.538Z,3.77
2023-03-11T06:08:59.125Z,3.77
2023-03-11T06:11:28.572Z,3.80
2023-03-11T06:13:57.546Z,3.90
2023-03-11T06:16:25.872Z,3.33
2023-03-11T06:19:00.993Z,3.77
2023-03-11T06:21:30.133Z,3.07
2023-03-11T06:23:57.556Z,3.17
2023-03-11T06:26:27.121Z,3.50
2023-03-11T06:28:56.733Z,4.37
2023-03-11T06:31:26.364Z,3.60
2023-03-11T06:33:56.173Z,4.00
2023-03-11T06:36:24.436Z,3.50
2023-03-11T06:38:54.251Z,3.80
2023-03-11T06:41:21.782Z,3.80
2023-03-11T06:43:49.284Z,3.70
2023-03-11T06:46:20.265Z,4.40
2023-03-11T06:48:51.932Z,3.80
2023-03-11T06:51:19.676Z,4.13
2023-03-11T06:53:49.778Z,4.53
2023-03-11T06:56:24.765Z,5.10
2023-03-11T06:59:12.595Z,4.47
2023-03-11T07:04:27.008Z,4.07
2023-03-11T07:06:53.993Z,5.00
2023-03-11T07:09:23.034Z,3.93
2023-03-11T07:11:51.876Z,3.70
2023-03-11T07:14:19.596Z,4.93
2023-03-11T07:16:46.683Z,4.37
2023-03-11T07:19:14.329Z,4.07
2023-03-11T07:21:41.649Z,3.97
2023-03-11T07:24:09.064Z,4.87
2023-03-11T07:26:36.456Z,3.57
2023-03-11T07:29:05.011Z,3.53
2023-03-11T07:31:37.242Z,3.90
2023-03-11T07:34:11.195Z,3.00
2023-03-11T07:36:40.809Z,4.33
2023-03-11T07:39:07.896Z,5.03
2023-03-11T07:41:35.932Z,4.90
2023-03-11T07:44:05.392Z,6.07
2023-03-11T07:46:33.417Z,7.30
2023-03-11T07:49:02.616Z,6.97
2023-03-11T07:51:31.410Z,7.57
2023-03-11T07:54:00.332Z,8.93
2023-03-11T07:56:29.148Z,7.77
2023-03-11T07:58:57.637Z,7.17
2023-03-11T08:01:30.678Z,8.83
2023-03-11T08:03:59.004Z,10.13
2023-03-11T08:06:29.177Z,13.57
2023-03-11T08:08:56.270Z,10.70
2023-03-11T08:11:24.060Z,10.10
2023-03-11T08:13:51.654Z,7.73
2023-03-11T08:16:20.779Z,9.30
2023-03-11T08:18:50.288Z,24.33
2023-03-11T08:21:19.330Z,8.57
2023-03-11T08:23:46.331Z,10.33
2023-03-11T08:26:15.063Z,6.13
2023-03-11T08:28:42.493Z,6.10
2023-03-11T08:31:14.287Z,5.47
2023-03-11T08:33:42.077Z,5.03
2023-03-11T08:36:10.925Z,3.53
2023-03-11T08:38:38.185Z,3.90
2023-03-11T08:41:05.474Z,3.90
2023-03-11T08:43:32.626Z,3.53
2023-03-11T08:46:01.157Z,3.77
2023-03-11T08:48:28.621Z,4.93
2023-03-11T08:50:56.242Z,4.50
2023-03-11T08:53:24.995Z,4.37
2023-03-11T08:55:52.798Z,4.80
2023-03-11T08:58:19.936Z,4.93
2023-03-11T09:00:47.640Z,5.03
2023-03-11T09:03:14.682Z,4.17
2023-03-11T09:07:04.678Z,5.17
2023-03-11T09:09:33.132Z,4.10
2023-03-11T09:12:09.204Z,4.57
2023-03-11T09:14:39.459Z,3.07
2023-03-11T09:17:07.128Z,5.20
2023-03-11T09:19:34.212Z,2.67
2023-03-11T09:22:01.715Z,2.70
2023-03-11T09:24:29.240Z,2.80
2023-03-11T09:26:57.494Z,3.13
2023-03-11T09:29:24.440Z,2.67
2023-03-11T09:31:51.525Z,1.80
2023-03-11T09:34:18.921Z,2.83
2023-03-11T09:36:46.153Z,2.20
2023-03-11T09:39:13.835Z,1.77
2023-03-11T09:41:58.019Z,2.08
2023-03-11T09:44:35.319Z,2.08
2023-03-11T09:47:23.035Z,2.47
2023-03-11T09:50:06.109Z,1.88
2023-03-11T09:52:40.337Z,2.05
2023-03-11T09:55:33.393Z,2.92
2023-03-11T09:58:04.088Z,2.17
2023-03-11T10:00:32.779Z,1.70
2023-03-11T10:03:02.956Z,1.98
2023-03-11T10:05:30.800Z,2.53
2023-03-11T10:08:03.958Z,1.00
2023-03-11T10:10:39.803Z,1.55
2023-03-11T10:13:15.264Z,1.80
2023-03-11T10:15:52.557Z,1.80
2023-03-11T10:18:37.362Z,2.00
2023-03-11T10:21:15.572Z,1.88
2023-03-11T10:23:57.377Z,1.85
2023-03-11T10:26:33.057Z,1.70
2023-03-11T10:29:07.768Z,1.55
2023-03-11T10:31:41.360Z,1.75
2023-03-11T10:34:17.622Z,2.03
2023-03-11T10:36:54.008Z,2.03
2023-03-11T10:39:22.224Z,1.38
2023-03-11T10:41:54.425Z,1.83
2023-03-11T10:44:25.562Z,1.65
2023-03-11T10:46:54.294Z,1.77
2023-03-11T10:49:23.742Z,1.52
2023-03-11T10:51:52.998Z,1.52
2023-03-11T10:54:30.241Z,1.45
2023-03-11T10:56:59.839Z,1.35
2023-03-11T10:59:30.249Z,1.35
2023-03-11T11:02:00.947Z,1.20
2023-03-11T11:04:31.372Z,1.27
2023-03-11T11:06:59.513Z,1.23
2023-03-11T11:09:31.075Z,1.35
2023-03-11T11:12:04.516Z,2.03
2023-03-11T11:14:45.905Z,1.60
2023-03-11T11:17:28.970Z,1.58
2023-03-11T11:19:58.188Z,1.63
2023-03-11T11:22:26.114Z,1.10
2023-03-11T11:24:55.027Z,1.65
2023-03-11T11:27:23.632Z,1.33
2023-03-11T11:30:10.794Z,1.50
2023-03-11T11:32:39.602Z,1.20
2023-03-11T11:35:11.284Z,1.65
2023-03-11T11:37:42.704Z,1.42
2023-03-11T11:40:23.572Z,1.90
2023-03-11T11:42:55.039Z,1.38
2023-03-11T11:45:35.844Z,1.30
2023-03-11T11:48:11.995Z,1.40
2023-03-11T11:50:44.684Z,1.13
2023-03-11T11:53:23.740Z,1.58
2023-03-11T11:55:54.034Z,1.67
2023-03-11T11:58:22.062Z,2.30
2023-03-11T12:01:09.443Z,4.45
2023-03-11T12:03:56.996Z,3.63
2023-03-11T12:06:31.731Z,4.78
2023-03-11T12:09:09.702Z,2.97
2023-03-11T12:11:42.126Z,1.40
2023-03-11T12:14:18.218Z,2.03
2023-03-11T12:16:52.644Z,2.63
2023-03-11T12:19:34.578Z,2.50
2023-03-11T12:22:27.341Z,1.55
2023-03-11T12:25:10.129Z,2.03
2023-03-11T12:27:44.950Z,1.90
2023-03-11T12:30:16.604Z,2.05
2023-03-11T12:32:49.445Z,4.25
2023-03-11T12:35:24.871Z,2.03
2023-03-11T12:38:06.204Z,2.45
2023-03-11T12:40:50.893Z,2.15
2023-03-11T12:43:26.155Z,2.95
2023-03-11T12:45:55.743Z,2.20
2023-03-11T12:48:34.618Z,2.20
2023-03-11T12:51:03.640Z,2.70
2023-03-11T12:53:43.807Z,3.20
2023-03-11T12:56:25.092Z,2.13
2023-03-11T12:59:15.529Z,2.83
2023-03-11T13:01:58.202Z,2.40
2023-03-11T13:04:33.200Z,2.75
2023-03-11T13:07:32.873Z,2.20
2023-03-11T13:10:06.988Z,2.20
2023-03-11T13:12:40.950Z,2.70
2023-03-11T13:18:00.676Z,2.30
2023-03-11T13:20:49.174Z,2.88
2023-03-11T13:23:28.603Z,2.03
2023-03-11T13:26:24.178Z,2.15
2023-03-11T13:29:11.582Z,2.00
2023-03-11T13:31:50.431Z,2.00
2023-03-11T13:34:28.725Z,2.47
2023-03-11T13:37:11.163Z,2.20
2023-03-11T13:40:00.181Z,1.90
2023-03-11T13:42:32.198Z,2.03
2023-03-11T13:45:00.044Z,2.65
2023-03-11T13:47:29.111Z,2.28
2023-03-11T13:50:02.827Z,2.63
2023-03-11T13:52:33.468Z,1.95
2023-03-11T13:55:06.546Z,2.45
2023-03-11T13:57:36.736Z,3.17
2023-03-11T14:00:16.818Z,3.00
2023-03-11T14:02:47.600Z,2.58
2023-03-11T14:05:17.724Z,2.40
2023-03-11T14:07:45.328Z,4.07
2023-03-11T14:10:18.775Z,3.15
2023-03-11T14:12:47.560Z,5.90
2023-03-11T14:15:19.176Z,3.03
2023-03-11T14:17:48.697Z,2.30
2023-03-11T14:20:17.728Z,2.38
2023-03-11T14:22:46.453Z,2.83
2023-03-11T14:25:20.360Z,2.00
2023-03-11T14:30:22.086Z,2.35
2023-03-11T14:32:57.551Z,1.90
2023-03-11T14:35:24.806Z,2.17
2023-03-11T14:37:52.350Z,1.92
2023-03-11T14:40:25.921Z,2.20
2023-03-11T14:42:56.076Z,1.88
2023-03-11T14:45:26.067Z,2.83
2023-03-11T14:47:57.301Z,1.92
2023-03-11T14:50:26.670Z,1.85
2023-03-11T14:52:58.635Z,2.22
2023-03-11T14:55:30.222Z,1.88
2023-03-11T14:58:03.350Z,2.15
2023-03-11T15:00:36.809Z,2.40
2023-03-11T15:03:14.122Z,2.15
2023-03-11T15:05:47.466Z,2.03
2023-03-11T15:08:18.967Z,2.03
2023-03-11T15:11:16.949Z,2.22
2023-03-11T15:13:47.582Z,2.10
2023-03-11T15:16:25.569Z,2.72
2023-03-11T15:18:54.517Z,2.25
2023-03-11T15:21:23.685Z,2.13
2023-03-11T15:23:52.792Z,1.60
2023-03-11T15:26:23.623Z,1.38
2023-03-11T15:28:57.367Z,1.48
2023-03-11T15:31:33.778Z,1.80
2023-03-11T15:34:26.988Z,2.17
2023-03-11T15:37:03.497Z,1.77
2023-03-11T15:39:45.319Z,1.33
2023-03-11T15:42:19.989Z,1.50
2023-03-11T15:45:12.214Z,1.33
2023-03-11T15:47:39.814Z,1.50
2023-03-11T15:50:27.289Z,1.50
2023-03-11T15:52:58.676Z,1.58
2023-03-11T15:55:27.219Z,1.40
2023-03-11T15:58:01.198Z,1.67
2023-03-11T16:00:29.711Z,2.30
2023-03-11T16:02:56.662Z,1.98
2023-03-11T16:05:24.986Z,1.48
2023-03-11T16:07:52.185Z,1.48
2023-03-11T16:10:21.272Z,1.83
2023-03-11T16:12:48.984Z,1.83
2023-03-11T16:15:24.858Z,1.50
2023-03-11T16:17:54.073Z,1.55
2023-03-11T16:20:22.697Z,2.10
2023-03-11T16:22:52.358Z,1.95
2023-03-11T16:25:23.654Z,1.77
2023-03-11T16:27:52.321Z,2.17
2023-03-11T16:30:20.497Z,2.42
2023-03-11T16:32:47.677Z,1.90
2023-03-11T16:35:16.329Z,1.80
2023-03-11T16:37:43.758Z,1.73
2023-03-11T16:40:14.237Z,1.73
2023-03-11T16:42:41.799Z,2.30
2023-03-11T16:45:09.291Z,2.67
2023-03-11T16:47:36.218Z,2.30
2023-03-11T16:50:04.215Z,1.65
2023-03-11T16:52:32.888Z,2.10
2023-03-11T16:54:59.918Z,2.60
2023-03-11T16:57:26.898Z,2.10
2023-03-11T16:59:53.986Z,1.87
2023-03-11T17:02:24.088Z,2.70
2023-03-11T17:04:51.685Z,1.50
2023-03-11T17:07:18.823Z,1.80
2023-03-11T17:09:47.351Z,2.30
2023-03-11T17:12:15.869Z,2.10
2023-03-11T17:14:42.865Z,1.83
2023-03-11T17:17:09.916Z,2.08
2023-03-11T17:19:37.014Z,2.23
2023-03-11T17:22:04.970Z,1.90
2023-03-11T17:24:32.493Z,2.30
2023-03-11T17:27:00.850Z,2.57
2023-03-11T17:29:27.995Z,1.90
2023-03-11T17:31:55.110Z,2.03
2023-03-11T17:34:22.706Z,2.20
2023-03-11T17:36:49.981Z,2.43
2023-03-11T17:39:16.983Z,2.63
2023-03-11T17:41:44.106Z,2.53
2023-03-11T17:44:12.965Z,2.87
2023-03-11T17:46:40.883Z,2.50
2023-03-11T17:49:12.620Z,2.20
2023-03-11T17:51:39.668Z,2.50
2023-03-11T17:54:06.816Z,2.27
2023-03-11T17:56:33.958Z,2.40
2023-03-11T17:59:00.961Z,2.73
2023-03-11T18:01:29.970Z,2.20
2023-03-11T18:03:57.333Z,2.63
2023-03-11T18:06:24.751Z,2.23
2023-03-11T18:08:52.316Z,2.20
2023-03-11T18:11:21.199Z,1.83
2023-03-11T18:13:48.400Z,2.93
2023-03-11T18:16:17.289Z,2.47
2023-03-11T18:18:46.295Z,2.37
2023-03-11T18:21:15.864Z,3.30
2023-03-11T18:23:43.365Z,2.80
2023-03-11T18:26:12.879Z,3.00
2023-03-11T18:28:40.058Z,3.40
2023-03-11T18:31:07.818Z,4.37
2023-03-11T18:33:35.347Z,3.40
2023-03-11T18:36:14.290Z,3.67
2023-03-11T18:38:41.401Z,3.87
2023-03-11T18:41:08.470Z,3.90
2023-03-11T18:43:35.973Z,3.77
2023-03-11T18:46:07.917Z,3.30
2023-03-11T18:48:34.873Z,3.50
2023-03-11T18:51:01.924Z,4.20
2023-03-11T18:53:30.418Z,4.70
2023-03-11T18:56:02.201Z,5.33
2023-03-11T18:58:29.831Z,5.17
2023-03-11T19:01:04.100Z,6.13
2023-03-11T19:03:31.324Z,6.13
2023-03-11T19:05:59.725Z,6.40
2023-03-11T19:08:27.038Z,6.63
2023-03-11T19:10:55.580Z,5.63
2023-03-11T19:13:22.988Z,6.73
2023-03-11T19:15:50.235Z,6.97
2023-03-11T19:18:17.291Z,6.73
2023-03-11T19:20:44.361Z,6.53
2023-03-11T19:23:11.510Z,6.10
2023-03-11T19:25:38.685Z,6.57
2023-03-11T19:28:07.012Z,7.07
2023-03-11T19:30:33.928Z,6.20
2023-03-11T19:33:01.006Z,5.97
2023-03-11T19:35:28.290Z,6.57
2023-03-11T19:37:57.380Z,6.17
2023-03-11T19:40:25.194Z,6.50
2023-03-11T19:42:52.677Z,5.80
2023-03-11T19:45:21.142Z,5.90
2023-03-11T19:47:51.483Z,6.23
2023-03-11T19:50:19.388Z,5.83
2023-03-11T19:52:46.396Z,6.70
2023-03-11T19:55:13.446Z,6.50
2023-03-11T19:57:40.600Z,6.53
2023-03-11T20:00:09.555Z,6.43
2023-03-11T20:02:38.125Z,5.73
2023-03-11T20:05:06.205Z,6.00
2023-03-11T20:07:33.882Z,6.00
2023-03-11T20:10:00.990Z,6.23
2023-03-11T20:12:28.054Z,6.67
2023-03-11T20:14:55.188Z,7.40
2023-03-11T20:17:22.355Z,6.73
2023-03-11T20:19:50.828Z,6.77
2023-03-11T20:22:17.855Z,6.57
2023-03-11T20:24:45.471Z,5.90
2023-03-11T20:27:12.553Z,5.73
2023-03-11T20:29:39.583Z,6.57
2023-03-11T20:32:06.736Z,5.77
2023-03-11T20:34:33.727Z,5.60
2023-03-11T20:37:02.182Z,5.93
2023-03-11T20:39:29.215Z,7.10
2023-03-11T20:41:58.058Z,6.20
2023-03-11T20:44:25.220Z,5.50
2023-03-11T20:46:54.893Z,6.17
2023-03-11T20:49:22.096Z,5.90
2023-03-11T20:51:49.210Z,5.37
2023-03-11T20:54:17.745Z,6.70
2023-03-11T20:56:44.961Z,5.43
2023-03-11T20:59:14.150Z,6.00
2023-03-11T21:01:41.154Z,6.03
2023-03-11T21:04:08.378Z,6.63
2023-03-11T21:06:38.747Z,6.47
2023-03-11T21:09:07.727Z,5.97
2023-03-11T21:11:36.254Z,6.27
2023-03-11T21:14:04.092Z,6.40
2023-03-11T21:16:31.292Z,6.53
2023-03-11T21:18:58.934Z,5.90
2023-03-11T21:21:26.103Z,6.60
2023-03-11T21:23:53.346Z,6.13
2023-03-11T21:26:20.393Z,6.30
2023-03-11T21:28:48.972Z,5.83
2023-03-11T21:31:18.035Z,6.30
2023-03-11T21:33:45.272Z,5.87
2023-03-11T21:36:13.585Z,5.67
2023-03-11T21:38:40.958Z,5.43
2023-03-11T21:41:10.668Z,4.70
2023-03-11T21:43:38.911Z,5.43
2023-03-11T21:46:08.613Z,5.27
2023-03-11T21:48:36.066Z,5.10
2023-03-11T21:51:03.351Z,4.97
2023-03-11T21:53:31.307Z,5.97
2023-03-11T21:55:59.881Z,5.50
2023-03-11T21:58:27.446Z,5.77
2023-03-11T22:00:54.450Z,5.43
2023-03-11T22:03:23.048Z,5.33
2023-03-11T22:05:56.310Z,5.17
2023-03-11T22:08:23.406Z,5.13
2023-03-11T22:10:50.614Z,5.93
2023-03-11T22:13:17.843Z,5.33
2023-03-11T22:15:45.107Z,5.60
2023-03-11T22:18:12.402Z,4.83
2023-03-11T22:20:41.987Z,4.53
2023-03-11T22:23:09.645Z,5.20
2023-03-11T22:25:36.931Z,5.20
2023-03-11T22:28:04.563Z,5.27
2023-03-11T22:30:31.781Z,4.73
2023-03-11T22:32:58.828Z,5.03
2023-03-11T22:35:25.789Z,5.00
2023-03-11T22:37:54.228Z,5.37
2023-03-11T22:40:21.336Z,4.47
2023-03-11T22:42:48.314Z,4.87
2023-03-11T22:45:15.386Z,5.00
2023-03-11T22:47:42.440Z,5.10
2023-03-11T22:50:10.520Z,4.80
2023-03-11T22:52:37.574Z,5.33
2023-03-11T22:55:06.751Z,4.57
2023-03-11T22:57:38.838Z,4.83
2023-03-11T23:00:17.169Z,4.97
2023-03-11T23:02:44.768Z,4.60
2023-03-11T23:05:12.133Z,5.20
2023-03-11T23:07:39.372Z,4.47
2023-03-11T23:10:11.080Z,4.43
2023-03-11T23:12:38.396Z,4.50
2023-03-11T23:15:08.122Z,4.13
2023-03-11T23:17:35.129Z,4.13
2023-03-11T23:20:03.418Z,4.20
2023-03-11T23:22:30.446Z,4.33
2023-03-11T23:25:01.504Z,4.30
2023-03-11T23:27:30.395Z,4.30
2023-03-11T23:29:57.403Z,4.53
2023-03-11T23:32:24.496Z,4.57
2023-03-11T23:34:51.491Z,5.13
2023-03-11T23:37:18.443Z,6.00
2023-03-11T23:39:45.358Z,4.60
2023-03-11T23:42:25.047Z,4.83
2023-03-11T23:44:54.331Z,4.80
2023-03-11T23:47:21.539Z,5.17
2023-03-11T23:49:48.545Z,4.17
2023-03-11T23:52:16.004Z,4.67
2023-03-11T23:54:42.989Z,4.83
2023-03-11T23:57:10.051Z,4.33
2023-03-11T23:59:37.098Z,4.60
